VDPP/PNH METAR and TAF weather

Enter ICAO airport designator
Station Type Date Time Source
VDPP METAR 2020/04/02 00:00 UTC NOAA

VDPP 020000Z 15007KT 9999 FEW017 28/25 Q1010


Station Type Date Time Source
VDPP Decoded METAR 2020/04/02 00:00 UTC NOAA

Phnom-Penh / Pochentong, Cambodia (VDPP) 11-33N 104-51E 10M
Apr 01, 2020 - 08:00 PM EDT / 2020.04.02 0000 UTC
Wind: from the SSE (150 degrees) at 8 MPH (7 KT):0
Visibility: greater than 7 mile(s):0
Sky conditions: mostly clear
Temperature: 82 F (28 C)
Dew Point: 77 F (25 C)
Relative Humidity: 83%
Pressure (altimeter): 29.83 in. Hg (1010 hPa)
ob: VDPP 020000Z 15007KT 9999 FEW017 28/25 Q1010
cycle: 0

Station Type Date Time Source
VDPP TAF 2020/04/01 18:00 UTC NOAA

TAF VDPP 011700Z 0118/0212 18007KT 9999 FEW017

Example: see airport list